Terminal Aerodrome Forecast
Issued by NWS

Home | Current Version | Previous Version | Text Only | Print | Product List | Glossary On
Versions: 1 2 3 4 5 6 7 8 9 10 11 12 13 14 15
000
FTUS45 KTFX 241700
TAFHVR
TAF
KHVR 241720Z 2418/2518 25012KT P6SM BKN100
     FM242100 25012KT P6SM SCT050 SCT100 BKN250
     FM250400 22015KT P6SM BKN050
     FM250900 32010KT P6SM OVC040 PROB30 2509/2515 2SM -SN OVC010
     FM251600 32014KT P6SM BKN070=

USA.gov is the U.S. government's official web portal to all federal, state and local government web resources and services.